sensor_id;sensor_type;location;lat;lon;timestamp;P1;durP1;ratioP1;P2;durP2;ratioP2
22070;SDS011;11200;51.488;6.668;2023-03-17T04:47:18;3.00;;;2.00;;
22070;SDS011;11200;51.488;6.668;2023-03-17T04:49:44;3.00;;;2.17;;
22070;SDS011;11200;51.488;6.668;2023-03-17T04:52:10;1.75;;;1.60;;
22070;SDS011;11200;51.488;6.668;2023-03-17T04:54:36;2.25;;;1.70;;
22070;SDS011;11200;51.488;6.668;2023-03-17T04:57:02;3.28;;;2.10;;
22070;SDS011;11200;51.488;6.668;2023-03-17T04:59:27;2.53;;;2.10;;
22070;SDS011;11200;51.488;6.668;2023-03-17T05:01:53;2.72;;;2.10;;
22070;SDS011;11200;51.488;6.668;2023-03-17T05:04:19;3.83;;;2.40;;
22070;SDS011;11200;51.488;6.668;2023-03-17T05:06:44;3.17;;;2.15;;
22070;SDS011;11200;51.488;6.668;2023-03-17T05:09:10;2.75;;;1.95;;
22070;SDS011;11200;51.488;6.668;2023-03-17T05:11:36;4.00;;;2.15;;
22070;SDS011;11200;51.488;6.668;2023-03-17T05:14:01;3.88;;;2.13;;
22070;SDS011;11200;51.488;6.668;2023-03-17T05:16:27;4.30;;;2.40;;
22070;SDS011;11200;51.488;6.668;2023-03-17T05:18:53;3.90;;;2.30;;
22070;SDS011;11200;51.488;6.668;2023-03-17T05:21:19;3.28;;;2.20;;
22070;SDS011;11200;51.488;6.668;2023-03-17T05:23:45;3.22;;;2.20;;
22070;SDS011;11200;51.488;6.668;2023-03-17T05:26:10;4.38;;;2.50;;
22070;SDS011;11200;51.488;6.668;2023-03-17T05:28:37;6.15;;;2.60;;
22070;SDS011;11200;51.488;6.668;2023-03-17T05:31:02;4.03;;;2.70;;
22070;SDS011;11200;51.488;6.668;2023-03-17T05:33:29;4.07;;;2.60;;
22070;SDS011;11200;51.488;6.668;2023-03-17T05:35:55;3.28;;;2.47;;
22070;SDS011;11200;51.488;6.668;2023-03-17T05:38:21;4.40;;;2.35;;
22070;SDS011;11200;51.488;6.668;2023-03-17T05:40:50;3.53;;;2.30;;
22070;SDS011;11200;51.488;6.668;2023-03-17T05:43:16;3.58;;;2.30;;
22070;SDS011;11200;51.488;6.668;2023-03-17T05:45:42;3.50;;;2.50;;
22070;SDS011;11200;51.488;6.668;2023-03-17T05:48:08;2.97;;;2.20;;
22070;SDS011;11200;51.488;6.668;2023-03-17T05:50:36;3.55;;;2.42;;
22070;SDS011;11200;51.488;6.668;2023-03-17T05:53:01;4.50;;;2.50;;
22070;SDS011;11200;51.488;6.668;2023-03-17T05:55:27;3.50;;;2.58;;
22070;SDS011;11200;51.488;6.668;2023-03-17T05:57:53;4.30;;;2.40;;
22070;SDS011;11200;51.488;6.668;2023-03-17T06:00:18;5.75;;;2.67;;
22070;SDS011;11200;51.488;6.668;2023-03-17T06:02:45;3.58;;;2.20;;
22070;SDS011;11200;51.488;6.668;2023-03-17T06:05:11;3.90;;;2.50;;
22070;SDS011;11200;51.488;6.668;2023-03-17T06:07:37;2.80;;;2.30;;
22070;SDS011;11200;51.488;6.668;2023-03-17T06:10:03;3.97;;;2.53;;
22070;SDS011;11200;51.488;6.668;2023-03-17T06:12:31;3.92;;;2.40;;
22070;SDS011;11200;51.488;6.668;2023-03-17T06:14:57;4.68;;;2.53;;
22070;SDS011;11200;51.488;6.668;2023-03-17T06:17:23;5.28;;;2.58;;
22070;SDS011;11200;51.488;6.668;2023-03-17T06:19:49;4.60;;;2.67;;
22070;SDS011;11200;51.488;6.668;2023-03-17T06:22:15;4.25;;;2.60;;
22070;SDS011;11200;51.488;6.668;2023-03-17T06:24:41;4.78;;;2.70;;
22070;SDS011;11200;51.488;6.668;2023-03-17T06:27:06;3.88;;;2.95;;
22070;SDS011;11200;51.488;6.668;2023-03-17T06:29:34;5.60;;;2.85;;
22070;SDS011;11200;51.488;6.668;2023-03-17T06:32:01;3.63;;;2.60;;
22070;SDS011;11200;51.488;6.668;2023-03-17T06:34:27;4.57;;;2.22;;
22070;SDS011;11200;51.488;6.668;2023-03-17T06:36:53;4.38;;;2.20;;
22070;SDS011;11200;51.488;6.668;2023-03-17T06:39:19;4.18;;;2.53;;
22070;SDS011;11200;51.488;6.668;2023-03-17T06:41:45;3.70;;;2.38;;
22070;SDS011;11200;51.488;6.668;2023-03-17T06:44:11;3.55;;;2.42;;
22070;SDS011;11200;51.488;6.668;2023-03-17T06:46:38;4.68;;;2.40;;
22070;SDS011;11200;51.488;6.668;2023-03-17T06:49:03;4.57;;;2.30;;
22070;SDS011;11200;51.488;6.668;2023-03-17T06:51:29;4.00;;;2.63;;
22070;SDS011;11200;51.488;6.668;2023-03-17T06:53:56;3.42;;;2.00;;
22070;SDS011;11200;51.488;6.668;2023-03-17T06:56:22;3.05;;;2.30;;
22070;SDS011;11200;51.488;6.668;2023-03-17T06:58:47;3.45;;;2.42;;
22070;SDS011;11200;51.488;6.668;2023-03-17T07:01:13;3.65;;;2.58;;
22070;SDS011;11200;51.488;6.668;2023-03-17T07:03:40;5.43;;;2.65;;
22070;SDS011;11200;51.488;6.668;2023-03-17T07:06:05;4.72;;;2.30;;
22070;SDS011;11200;51.488;6.668;2023-03-17T07:08:32;4.00;;;2.80;;
22070;SDS011;11200;51.488;6.668;2023-03-17T07:10:58;3.80;;;2.55;;
22070;SDS011;11200;51.488;6.668;2023-03-17T07:13:24;5.10;;;2.40;;
22070;SDS011;11200;51.488;6.668;2023-03-17T07:15:51;3.58;;;2.80;;
22070;SDS011;11200;51.488;6.668;2023-03-17T07:18:17;5.50;;;2.70;;
22070;SDS011;11200;51.488;6.668;2023-03-17T07:20:43;3.05;;;2.40;;
22070;SDS011;11200;51.488;6.668;2023-03-17T07:23:29;3.55;;;2.60;;
22070;SDS011;11200;51.488;6.668;2023-03-17T07:25:55;4.43;;;2.88;;
22070;SDS011;11200;51.488;6.668;2023-03-17T07:28:24;4.00;;;2.80;;
22070;SDS011;11200;51.488;6.668;2023-03-17T07:30:50;4.43;;;2.67;;
22070;SDS011;11200;51.488;6.668;2023-03-17T07:33:16;5.32;;;2.95;;
22070;SDS011;11200;51.488;6.668;2023-03-17T07:35:45;3.65;;;2.53;;
22070;SDS011;11200;51.488;6.668;2023-03-17T07:38:11;4.88;;;2.80;;
22070;SDS011;11200;51.488;6.668;2023-03-17T07:40:37;6.50;;;2.63;;
22070;SDS011;11200;51.488;6.668;2023-03-17T07:43:03;4.60;;;3.00;;
22070;SDS011;11200;51.488;6.668;2023-03-17T07:45:29;4.05;;;3.00;;
22070;SDS011;11200;51.488;6.668;2023-03-17T07:47:55;4.20;;;3.05;;
22070;SDS011;11200;51.488;6.668;2023-03-17T07:50:21;7.95;;;3.90;;
22070;SDS011;11200;51.488;6.668;2023-03-17T07:52:47;5.57;;;3.40;;
22070;SDS011;11200;51.488;6.668;2023-03-17T07:55:12;6.53;;;3.95;;
22070;SDS011;11200;51.488;6.668;2023-03-17T07:57:38;8.10;;;4.60;;
22070;SDS011;11200;51.488;6.668;2023-03-17T08:00:04;9.98;;;4.28;;
22070;SDS011;11200;51.488;6.668;2023-03-17T08:02:34;5.57;;;3.40;;
22070;SDS011;11200;51.488;6.668;2023-03-17T08:05:00;6.50;;;3.65;;
22070;SDS011;11200;51.488;6.668;2023-03-17T08:07:27;6.20;;;3.88;;
22070;SDS011;11200;51.488;6.668;2023-03-17T08:09:54;6.55;;;3.80;;
22070;SDS011;11200;51.488;6.668;2023-03-17T08:12:20;6.95;;;3.70;;
22070;SDS011;11200;51.488;6.668;2023-03-17T08:14:46;5.57;;;3.78;;
22070;SDS011;11200;51.488;6.668;2023-03-17T08:17:11;5.90;;;3.60;;
22070;SDS011;11200;51.488;6.668;2023-03-17T08:19:37;6.55;;;3.50;;
22070;SDS011;11200;51.488;6.668;2023-03-17T08:22:03;6.07;;;3.30;;
22070;SDS011;11200;51.488;6.668;2023-03-17T08:24:29;4.40;;;2.95;;
22070;SDS011;11200;51.488;6.668;2023-03-17T08:26:54;6.55;;;3.42;;
22070;SDS011;11200;51.488;6.668;2023-03-17T08:29:20;6.28;;;3.33;;
22070;SDS011;11200;51.488;6.668;2023-03-17T08:31:46;5.90;;;3.20;;
22070;SDS011;11200;51.488;6.668;2023-03-17T08:34:12;4.53;;;3.47;;
22070;SDS011;11200;51.488;6.668;2023-03-17T08:36:38;5.88;;;3.20;;
22070;SDS011;11200;51.488;6.668;2023-03-17T08:39:03;5.22;;;3.40;;
22070;SDS011;11200;51.488;6.668;2023-03-17T08:41:29;5.45;;;3.10;;
22070;SDS011;11200;51.488;6.668;2023-03-17T08:43:56;6.47;;;3.45;;
22070;SDS011;11200;51.488;6.668;2023-03-17T08:46:23;6.70;;;3.70;;
22070;SDS011;11200;51.488;6.668;2023-03-17T08:48:54;5.38;;;3.10;;
22070;SDS011;11200;51.488;6.668;2023-03-17T08:51:21;7.10;;;3.63;;
22070;SDS011;11200;51.488;6.668;2023-03-17T08:53:48;4.75;;;3.20;;
22070;SDS011;11200;51.488;6.668;2023-03-17T08:56:15;7.60;;;3.30;;
22070;SDS011;11200;51.488;6.668;2023-03-17T08:58:41;7.25;;;3.70;;
22070;SDS011;11200;51.488;6.668;2023-03-17T09:01:07;6.07;;;3.60;;
22070;SDS011;11200;51.488;6.668;2023-03-17T09:03:35;6.38;;;3.63;;
22070;SDS011;11200;51.488;6.668;2023-03-17T09:06:01;4.72;;;3.30;;
22070;SDS011;11200;51.488;6.668;2023-03-17T09:08:30;8.23;;;3.70;;
22070;SDS011;11200;51.488;6.668;2023-03-17T09:10:57;5.50;;;3.60;;
22070;SDS011;11200;51.488;6.668;2023-03-17T09:13:22;7.88;;;3.50;;
22070;SDS011;11200;51.488;6.668;2023-03-17T09:15:48;6.10;;;3.92;;
22070;SDS011;11200;51.488;6.668;2023-03-17T09:18:14;5.55;;;3.78;;
22070;SDS011;11200;51.488;6.668;2023-03-17T09:20:40;6.35;;;3.53;;
22070;SDS011;11200;51.488;6.668;2023-03-17T09:23:06;5.93;;;3.60;;
22070;SDS011;11200;51.488;6.668;2023-03-17T09:25:37;7.10;;;3.55;;
22070;SDS011;11200;51.488;6.668;2023-03-17T09:28:04;6.47;;;3.28;;
22070;SDS011;11200;51.488;6.668;2023-03-17T09:30:31;6.82;;;3.45;;
22070;SDS011;11200;51.488;6.668;2023-03-17T09:32:57;7.13;;;3.42;;
22070;SDS011;11200;51.488;6.668;2023-03-17T09:35:24;5.88;;;3.38;;
22070;SDS011;11200;51.488;6.668;2023-03-17T09:37:52;4.70;;;2.72;;
22070;SDS011;11200;51.488;6.668;2023-03-17T09:40:18;5.47;;;3.28;;
22070;SDS011;11200;51.488;6.668;2023-03-17T09:42:49;7.25;;;3.80;;
22070;SDS011;11200;51.488;6.668;2023-03-17T09:51:05;7.07;;;3.55;;
22070;SDS011;11200;51.488;6.668;2023-03-17T09:53:35;5.93;;;3.60;;
22070;SDS011;11200;51.488;6.668;2023-03-17T09:56:15;5.47;;;3.95;;
22070;SDS011;11200;51.488;6.668;2023-03-17T09:58:50;5.68;;;3.63;;
22070;SDS011;11200;51.488;6.668;2023-03-17T10:01:27;7.05;;;4.10;;
22070;SDS011;11200;51.488;6.668;2023-03-17T10:03:53;6.63;;;3.50;;
22070;SDS011;11200;51.488;6.668;2023-03-17T10:12:34;6.35;;;3.50;;
22070;SDS011;11200;51.488;6.668;2023-03-17T10:15:14;5.90;;;3.45;;
22070;SDS011;11200;51.488;6.668;2023-03-17T10:17:56;7.40;;;3.33;;
22070;SDS011;11200;51.488;6.668;2023-03-17T10:20:32;6.25;;;3.20;;
22070;SDS011;11200;51.488;6.668;2023-03-17T10:23:02;9.27;;;3.55;;
22070;SDS011;11200;51.488;6.668;2023-03-17T10:25:31;6.00;;;3.35;;
22070;SDS011;11200;51.488;6.668;2023-03-17T10:30:40;6.43;;;3.45;;
22070;SDS011;11200;51.488;6.668;2023-03-17T10:33:07;7.50;;;3.47;;
22070;SDS011;11200;51.488;6.668;2023-03-17T10:35:34;5.55;;;3.50;;
22070;SDS011;11200;51.488;6.668;2023-03-17T10:38:13;7.13;;;4.10;;
22070;SDS011;11200;51.488;6.668;2023-03-17T10:40:43;6.97;;;4.30;;
22070;SDS011;11200;51.488;6.668;2023-03-17T10:43:15;6.32;;;4.03;;
22070;SDS011;11200;51.488;6.668;2023-03-17T10:45:59;7.25;;;3.75;;
22070;SDS011;11200;51.488;6.668;2023-03-17T10:48:27;7.15;;;4.25;;
22070;SDS011;11200;51.488;6.668;2023-03-17T10:50:55;6.65;;;4.07;;
22070;SDS011;11200;51.488;6.668;2023-03-17T10:53:25;5.88;;;3.67;;
22070;SDS011;11200;51.488;6.668;2023-03-17T10:56:06;7.50;;;3.83;;
22070;SDS011;11200;51.488;6.668;2023-03-17T10:58:35;5.85;;;3.67;;
22070;SDS011;11200;51.488;6.668;2023-03-17T11:01:05;8.48;;;4.07;;
22070;SDS011;11200;51.488;6.668;2023-03-17T11:03:51;5.28;;;3.50;;
22070;SDS011;11200;51.488;6.668;2023-03-17T11:06:17;6.55;;;3.75;;
22070;SDS011;11200;51.488;6.668;2023-03-17T11:08:48;4.97;;;3.50;;
22070;SDS011;11200;51.488;6.668;2023-03-17T11:11:22;7.10;;;3.67;;
22070;SDS011;11200;51.488;6.668;2023-03-17T11:14:03;5.93;;;3.45;;
22070;SDS011;11200;51.488;6.668;2023-03-17T11:16:33;5.75;;;3.40;;
22070;SDS011;11200;51.488;6.668;2023-03-17T11:19:02;6.28;;;3.40;;
22070;SDS011;11200;51.488;6.668;2023-03-17T11:21:50;6.85;;;3.50;;
22070;SDS011;11200;51.488;6.668;2023-03-17T11:24:31;5.47;;;3.60;;
22070;SDS011;11200;51.488;6.668;2023-03-17T11:32:37;6.80;;;4.07;;
22070;SDS011;11200;51.488;6.668;2023-03-17T11:35:49;7.55;;;4.00;;
22070;SDS011;11200;51.488;6.668;2023-03-17T11:47:02;5.03;;;3.60;;
22070;SDS011;11200;51.488;6.668;2023-03-17T11:49:33;7.18;;;4.03;;
22070;SDS011;11200;51.488;6.668;2023-03-17T11:57:26;6.47;;;3.60;;
22070;SDS011;11200;51.488;6.668;2023-03-17T11:59:59;6.03;;;3.45;;
22070;SDS011;11200;51.488;6.668;2023-03-17T12:03:15;6.22;;;3.55;;
22070;SDS011;11200;51.488;6.668;2023-03-17T12:05:48;7.45;;;3.25;;
22070;SDS011;11200;51.488;6.668;2023-03-17T12:08:49;6.60;;;3.40;;
22070;SDS011;11200;51.488;6.668;2023-03-17T12:11:17;6.18;;;3.55;;
22070;SDS011;11200;51.488;6.668;2023-03-17T12:13:51;5.35;;;3.40;;
22070;SDS011;11200;51.488;6.668;2023-03-17T12:16:39;4.35;;;3.15;;
22070;SDS011;11200;51.488;6.668;2023-03-17T12:19:26;5.68;;;3.53;;
22070;SDS011;11200;51.488;6.668;2023-03-17T12:22:25;6.03;;;3.42;;
22070;SDS011;11200;51.488;6.668;2023-03-17T12:27:33;5.43;;;3.08;;
22070;SDS011;11200;51.488;6.668;2023-03-17T12:30:22;5.82;;;3.55;;
22070;SDS011;11200;51.488;6.668;2023-03-17T12:35:39;6.88;;;3.75;;
22070;SDS011;11200;51.488;6.668;2023-03-17T12:38:13;4.45;;;2.95;;
22070;SDS011;11200;51.488;6.668;2023-03-17T12:40:53;7.05;;;3.60;;
22070;SDS011;11200;51.488;6.668;2023-03-17T12:43:37;5.32;;;3.10;;
22070;SDS011;11200;51.488;6.668;2023-03-17T12:46:24;5.93;;;3.83;;
22070;SDS011;11200;51.488;6.668;2023-03-17T12:54:27;6.22;;;3.15;;
22070;SDS011;11200;51.488;6.668;2023-03-17T12:57:18;4.40;;;2.90;;
22070;SDS011;11200;51.488;6.668;2023-03-17T13:00:18;5.38;;;3.13;;
22070;SDS011;11200;51.488;6.668;2023-03-17T13:02:48;5.88;;;3.63;;
22070;SDS011;11200;51.488;6.668;2023-03-17T13:05:27;6.57;;;2.85;;
22070;SDS011;11200;51.488;6.668;2023-03-17T13:07:58;5.43;;;2.65;;
22070;SDS011;11200;51.488;6.668;2023-03-17T13:10:42;5.13;;;2.72;;
22070;SDS011;11200;51.488;6.668;2023-03-17T13:13:38;3.35;;;2.40;;
22070;SDS011;11200;51.488;6.668;2023-03-17T13:16:33;4.75;;;3.10;;
22070;SDS011;11200;51.488;6.668;2023-03-17T13:21:31;6.45;;;3.15;;
22070;SDS011;11200;51.488;6.668;2023-03-17T13:24:18;4.28;;;2.90;;
22070;SDS011;11200;51.488;6.668;2023-03-17T13:26:53;5.60;;;2.92;;
22070;SDS011;11200;51.488;6.668;2023-03-17T13:29:25;5.72;;;2.90;;
22070;SDS011;11200;51.488;6.668;2023-03-17T13:34:48;4.20;;;2.60;;
22070;SDS011;11200;51.488;6.668;2023-03-17T13:37:22;3.80;;;2.30;;
22070;SDS011;11200;51.488;6.668;2023-03-17T13:42:46;4.05;;;2.60;;
22070;SDS011;11200;51.488;6.668;2023-03-17T13:45:37;3.75;;;2.40;;
22070;SDS011;11200;51.488;6.668;2023-03-17T13:53:26;5.35;;;2.80;;
22070;SDS011;11200;51.488;6.668;2023-03-17T13:56:15;5.18;;;3.13;;
22070;SDS011;11200;51.488;6.668;2023-03-17T13:59:03;3.88;;;3.03;;
22070;SDS011;11200;51.488;6.668;2023-03-17T14:01:53;4.20;;;2.58;;
22070;SDS011;11200;51.488;6.668;2023-03-17T14:04:26;6.32;;;3.28;;
22070;SDS011;11200;51.488;6.668;2023-03-17T14:06:56;5.15;;;3.00;;
22070;SDS011;11200;51.488;6.668;2023-03-17T14:09:33;5.28;;;3.17;;
22070;SDS011;11200;51.488;6.668;2023-03-17T14:17:18;5.75;;;2.70;;
22070;SDS011;11200;51.488;6.668;2023-03-17T14:20:24;7.75;;;2.50;;
22070;SDS011;11200;51.488;6.668;2023-03-17T14:22:54;5.07;;;2.78;;
22070;SDS011;11200;51.488;6.668;2023-03-17T14:25:25;4.63;;;2.47;;
22070;SDS011;11200;51.488;6.668;2023-03-17T14:27:58;3.70;;;2.10;;
22070;SDS011;11200;51.488;6.668;2023-03-17T14:30:28;3.55;;;2.30;;
22070;SDS011;11200;51.488;6.668;2023-03-17T14:35:28;5.63;;;2.20;;
22070;SDS011;11200;51.488;6.668;2023-03-17T14:37:55;4.43;;;2.03;;
22070;SDS011;11200;51.488;6.668;2023-03-17T14:40:22;4.43;;;2.38;;
22070;SDS011;11200;51.488;6.668;2023-03-17T14:42:49;3.45;;;2.20;;
22070;SDS011;11200;51.488;6.668;2023-03-17T14:45:20;4.05;;;2.40;;
22070;SDS011;11200;51.488;6.668;2023-03-17T14:47:54;4.78;;;2.30;;
22070;SDS011;11200;51.488;6.668;2023-03-17T14:50:28;3.63;;;2.08;;
22070;SDS011;11200;51.488;6.668;2023-03-17T14:52:56;5.22;;;2.47;;
22070;SDS011;11200;51.488;6.668;2023-03-17T14:55:29;4.28;;;2.03;;
22070;SDS011;11200;51.488;6.668;2023-03-17T14:58:05;5.00;;;2.40;;
22070;SDS011;11200;51.488;6.668;2023-03-17T15:00:35;4.30;;;2.13;;
22070;SDS011;11200;51.488;6.668;2023-03-17T15:03:18;4.13;;;2.60;;
22070;SDS011;11200;51.488;6.668;2023-03-17T15:05:45;5.05;;;3.08;;
22070;SDS011;11200;51.488;6.668;2023-03-17T15:10:56;4.68;;;3.22;;
22070;SDS011;11200;51.488;6.668;2023-03-17T15:13:24;4.68;;;2.97;;
22070;SDS011;11200;51.488;6.668;2023-03-17T15:15:51;4.97;;;3.03;;
22070;SDS011;11200;51.488;6.668;2023-03-17T15:18:17;4.78;;;2.88;;
22070;SDS011;11200;51.488;6.668;2023-03-17T15:20:47;4.10;;;2.90;;
22070;SDS011;11200;51.488;6.668;2023-03-17T15:23:14;6.50;;;3.10;;
22070;SDS011;11200;51.488;6.668;2023-03-17T15:25:43;3.88;;;2.65;;
22070;SDS011;11200;51.488;6.668;2023-03-17T15:28:15;5.30;;;3.50;;
22070;SDS011;11200;51.488;6.668;2023-03-17T15:30:43;4.55;;;2.90;;
22070;SDS011;11200;51.488;6.668;2023-03-17T15:33:16;4.68;;;3.00;;
22070;SDS011;11200;51.488;6.668;2023-03-17T15:35:46;4.95;;;2.97;;
22070;SDS011;11200;51.488;6.668;2023-03-17T15:38:12;4.40;;;2.67;;
22070;SDS011;11200;51.488;6.668;2023-03-17T15:40:38;4.35;;;3.20;;
22070;SDS011;11200;51.488;6.668;2023-03-17T15:43:04;6.10;;;3.10;;
22070;SDS011;11200;51.488;6.668;2023-03-17T15:45:30;4.63;;;2.72;;
22070;SDS011;11200;51.488;6.668;2023-03-17T15:47:56;5.72;;;3.22;;
22070;SDS011;11200;51.488;6.668;2023-03-17T15:50:25;3.75;;;2.90;;
22070;SDS011;11200;51.488;6.668;2023-03-17T15:52:55;4.43;;;2.85;;
22070;SDS011;11200;51.488;6.668;2023-03-17T15:55:23;3.67;;;2.58;;
22070;SDS011;11200;51.488;6.668;2023-03-17T15:57:56;5.32;;;2.90;;
22070;SDS011;11200;51.488;6.668;2023-03-17T16:00:23;5.53;;;3.20;;
22070;SDS011;11200;51.488;6.668;2023-03-17T16:02:53;5.03;;;2.80;;
22070;SDS011;11200;51.488;6.668;2023-03-17T16:05:25;3.85;;;2.80;;
22070;SDS011;11200;51.488;6.668;2023-03-17T16:07:53;5.50;;;2.85;;
22070;SDS011;11200;51.488;6.668;2023-03-17T16:12:47;4.20;;;2.67;;
22070;SDS011;11200;51.488;6.668;2023-03-17T16:15:21;4.25;;;2.72;;
22070;SDS011;11200;51.488;6.668;2023-03-17T16:17:52;6.00;;;2.80;;
22070;SDS011;11200;51.488;6.668;2023-03-17T16:20:38;5.15;;;2.45;;
22070;SDS011;11200;51.488;6.668;2023-03-17T16:23:07;5.43;;;3.00;;
22070;SDS011;11200;51.488;6.668;2023-03-17T16:25:43;5.68;;;2.92;;
22070;SDS011;11200;51.488;6.668;2023-03-17T16:28:17;6.75;;;2.90;;
22070;SDS011;11200;51.488;6.668;2023-03-17T16:30:48;5.70;;;3.17;;
22070;SDS011;11200;51.488;6.668;2023-03-17T16:33:19;4.63;;;2.90;;
22070;SDS011;11200;51.488;6.668;2023-03-17T16:35:50;5.95;;;2.88;;
22070;SDS011;11200;51.488;6.668;2023-03-17T16:38:22;4.70;;;2.80;;
22070;SDS011;11200;51.488;6.668;2023-03-17T16:40:49;4.65;;;3.00;;
22070;SDS011;11200;51.488;6.668;2023-03-17T16:43:24;4.53;;;2.70;;
22070;SDS011;11200;51.488;6.668;2023-03-17T16:48:22;4.95;;;2.95;;
22070;SDS011;11200;51.488;6.668;2023-03-17T16:50:49;4.53;;;2.70;;
22070;SDS011;11200;51.488;6.668;2023-03-17T16:53:15;5.15;;;2.60;;
22070;SDS011;11200;51.488;6.668;2023-03-17T16:55:43;4.45;;;2.80;;
22070;SDS011;11200;51.488;6.668;2023-03-17T16:58:22;4.53;;;3.00;;
22070;SDS011;11200;51.488;6.668;2023-03-17T17:00:51;4.78;;;2.53;;
22070;SDS011;11200;51.488;6.668;2023-03-17T17:03:19;3.75;;;2.15;;
22070;SDS011;11200;51.488;6.668;2023-03-17T17:05:45;3.33;;;2.50;;
22070;SDS011;11200;51.488;6.668;2023-03-17T17:08:11;4.25;;;2.55;;
22070;SDS011;11200;51.488;6.668;2023-03-17T17:10:37;3.53;;;2.25;;
22070;SDS011;11200;51.488;6.668;2023-03-17T17:13:04;3.03;;;2.10;;
22070;SDS011;11200;51.488;6.668;2023-03-17T17:15:31;4.30;;;2.72;;
22070;SDS011;11200;51.488;6.668;2023-03-17T17:18:20;3.45;;;2.15;;
22070;SDS011;11200;51.488;6.668;2023-03-17T17:20:46;3.92;;;2.25;;
22070;SDS011;11200;51.488;6.668;2023-03-17T17:23:13;5.55;;;2.80;;
22070;SDS011;11200;51.488;6.668;2023-03-17T17:25:41;7.18;;;3.53;;
22070;SDS011;11200;51.488;6.668;2023-03-17T17:28:07;5.72;;;3.20;;
22070;SDS011;11200;51.488;6.668;2023-03-17T17:30:34;5.13;;;3.13;;
22070;SDS011;11200;51.488;6.668;2023-03-17T17:33:00;6.95;;;3.30;;
22070;SDS011;11200;51.488;6.668;2023-03-17T17:35:27;5.57;;;3.10;;
22070;SDS011;11200;51.488;6.668;2023-03-17T17:37:54;5.93;;;3.05;;
22070;SDS011;11200;51.488;6.668;2023-03-17T17:40:20;4.60;;;2.80;;
22070;SDS011;11200;51.488;6.668;2023-03-17T17:42:52;4.78;;;2.97;;
22070;SDS011;11200;51.488;6.668;2023-03-17T17:45:19;6.40;;;2.88;;
22070;SDS011;11200;51.488;6.668;2023-03-17T17:47:45;5.53;;;2.78;;
22070;SDS011;11200;51.488;6.668;2023-03-17T17:50:16;4.03;;;2.65;;
22070;SDS011;11200;51.488;6.668;2023-03-17T17:52:49;4.15;;;2.78;;
22070;SDS011;11200;51.488;6.668;2023-03-17T17:55:15;6.43;;;3.55;;
22070;SDS011;11200;51.488;6.668;2023-03-17T17:57:41;7.70;;;3.22;;
22070;SDS011;11200;51.488;6.668;2023-03-17T18:00:08;3.95;;;2.90;;
22070;SDS011;11200;51.488;6.668;2023-03-17T18:02:37;6.47;;;3.47;;
22070;SDS011;11200;51.488;6.668;2023-03-17T18:05:03;6.32;;;3.65;;
22070;SDS011;11200;51.488;6.668;2023-03-17T18:07:30;5.80;;;3.33;;
22070;SDS011;11200;51.488;6.668;2023-03-17T18:09:56;5.88;;;3.17;;
22070;SDS011;11200;51.488;6.668;2023-03-17T18:12:22;7.28;;;3.50;;
22070;SDS011;11200;51.488;6.668;2023-03-17T18:14:47;6.80;;;3.42;;
22070;SDS011;11200;51.488;6.668;2023-03-17T18:17:13;5.20;;;3.03;;
22070;SDS011;11200;51.488;6.668;2023-03-17T18:19:46;7.03;;;3.22;;
22070;SDS011;11200;51.488;6.668;2023-03-17T18:22:16;5.50;;;3.28;;
22070;SDS011;11200;51.488;6.668;2023-03-17T18:24:42;5.43;;;2.78;;
22070;SDS011;11200;51.488;6.668;2023-03-17T18:27:08;5.90;;;2.97;;
22070;SDS011;11200;51.488;6.668;2023-03-17T18:29:34;5.22;;;2.90;;
22070;SDS011;11200;51.488;6.668;2023-03-17T18:31:59;5.72;;;2.83;;
22070;SDS011;11200;51.488;6.668;2023-03-17T18:34:29;5.25;;;2.90;;
22070;SDS011;11200;51.488;6.668;2023-03-17T18:36:59;7.13;;;3.00;;
22070;SDS011;11200;51.488;6.668;2023-03-17T18:39:26;5.85;;;2.75;;
22070;SDS011;11200;51.488;6.668;2023-03-17T18:41:52;4.05;;;2.65;;
22070;SDS011;11200;51.488;6.668;2023-03-17T18:44:18;6.70;;;2.85;;
22070;SDS011;11200;51.488;6.668;2023-03-17T18:46:46;6.03;;;2.45;;
22070;SDS011;11200;51.488;6.668;2023-03-17T18:49:12;3.67;;;2.42;;
22070;SDS011;11200;51.488;6.668;2023-03-17T18:51:37;6.55;;;2.72;;
22070;SDS011;11200;51.488;6.668;2023-03-17T18:54:03;4.85;;;2.78;;
22070;SDS011;11200;51.488;6.668;2023-03-17T18:56:30;3.58;;;2.58;;
22070;SDS011;11200;51.488;6.668;2023-03-17T18:58:56;4.38;;;2.25;;
22070;SDS011;11200;51.488;6.668;2023-03-17T19:01:23;3.55;;;2.33;;
22070;SDS011;11200;51.488;6.668;2023-03-17T19:03:49;5.10;;;2.47;;
22070;SDS011;11200;51.488;6.668;2023-03-17T19:06:16;4.78;;;2.75;;
22070;SDS011;11200;51.488;6.668;2023-03-17T19:08:43;3.70;;;2.40;;
22070;SDS011;11200;51.488;6.668;2023-03-17T19:11:11;5.88;;;2.72;;
22070;SDS011;11200;51.488;6.668;2023-03-17T19:13:39;5.28;;;2.67;;
22070;SDS011;11200;51.488;6.668;2023-03-17T19:16:06;4.90;;;2.50;;
22070;SDS011;11200;51.488;6.668;2023-03-17T19:18:33;5.40;;;2.70;;
22070;SDS011;11200;51.488;6.668;2023-03-17T19:20:59;3.95;;;2.42;;
22070;SDS011;11200;51.488;6.668;2023-03-17T19:23:25;4.15;;;2.67;;
22070;SDS011;11200;51.488;6.668;2023-03-17T19:25:51;6.72;;;2.78;;
22070;SDS011;11200;51.488;6.668;2023-03-17T19:28:17;4.35;;;2.67;;
22070;SDS011;11200;51.488;6.668;2023-03-17T19:30:43;6.22;;;2.70;;
22070;SDS011;11200;51.488;6.668;2023-03-17T19:33:10;5.13;;;2.72;;
22070;SDS011;11200;51.488;6.668;2023-03-17T19:35:37;5.57;;;2.90;;
22070;SDS011;11200;51.488;6.668;2023-03-17T19:38:03;4.65;;;2.70;;
22070;SDS011;11200;51.488;6.668;2023-03-17T19:40:32;4.05;;;2.35;;
22070;SDS011;11200;51.488;6.668;2023-03-17T19:42:58;5.35;;;2.63;;
22070;SDS011;11200;51.488;6.668;2023-03-17T19:45:24;4.55;;;2.67;;
22070;SDS011;11200;51.488;6.668;2023-03-17T19:47:50;3.88;;;2.40;;
22070;SDS011;11200;51.488;6.668;2023-03-17T19:50:15;4.60;;;2.35;;
22070;SDS011;11200;51.488;6.668;2023-03-17T19:52:41;4.53;;;2.80;;
22070;SDS011;11200;51.488;6.668;2023-03-17T19:55:07;3.05;;;2.33;;
22070;SDS011;11200;51.488;6.668;2023-03-17T19:57:33;3.35;;;2.40;;
22070;SDS011;11200;51.488;6.668;2023-03-17T19:59:59;2.92;;;2.47;;
22070;SDS011;11200;51.488;6.668;2023-03-17T20:02:25;6.03;;;2.70;;
22070;SDS011;11200;51.488;6.668;2023-03-17T20:04:51;6.05;;;2.85;;
22070;SDS011;11200;51.488;6.668;2023-03-17T20:07:16;4.85;;;2.47;;
22070;SDS011;11200;51.488;6.668;2023-03-17T20:09:42;5.28;;;3.13;;
22070;SDS011;11200;51.488;6.668;2023-03-17T20:12:10;5.45;;;2.80;;
22070;SDS011;11200;51.488;6.668;2023-03-17T20:14:35;4.97;;;2.47;;
22070;SDS011;11200;51.488;6.668;2023-03-17T20:17:01;3.65;;;2.63;;
22070;SDS011;11200;51.488;6.668;2023-03-17T20:19:27;3.85;;;2.58;;
22070;SDS011;11200;51.488;6.668;2023-03-17T20:21:53;4.45;;;2.70;;
22070;SDS011;11200;51.488;6.668;2023-03-17T20:24:18;4.55;;;2.70;;
22070;SDS011;11200;51.488;6.668;2023-03-17T20:26:44;6.43;;;2.53;;
22070;SDS011;11200;51.488;6.668;2023-03-17T20:29:12;5.32;;;2.78;;
22070;SDS011;11200;51.488;6.668;2023-03-17T20:31:40;5.35;;;2.50;;
22070;SDS011;11200;51.488;6.668;2023-03-17T20:34:06;4.80;;;2.55;;
22070;SDS011;11200;51.488;6.668;2023-03-17T20:36:34;4.07;;;2.30;;
22070;SDS011;11200;51.488;6.668;2023-03-17T20:39:01;5.05;;;2.60;;
22070;SDS011;11200;51.488;6.668;2023-03-17T20:41:27;3.53;;;2.17;;
22070;SDS011;11200;51.488;6.668;2023-03-17T20:43:53;4.07;;;2.28;;
22070;SDS011;11200;51.488;6.668;2023-03-17T20:46:20;5.15;;;2.63;;
22070;SDS011;11200;51.488;6.668;2023-03-17T20:48:47;5.05;;;2.75;;
22070;SDS011;11200;51.488;6.668;2023-03-17T20:51:15;6.10;;;2.60;;
22070;SDS011;11200;51.488;6.668;2023-03-17T20:53:43;5.05;;;2.67;;
22070;SDS011;11200;51.488;6.668;2023-03-17T20:56:18;5.60;;;2.80;;
22070;SDS011;11200;51.488;6.668;2023-03-17T20:58:46;4.40;;;2.90;;
22070;SDS011;11200;51.488;6.668;2023-03-17T21:01:13;5.78;;;3.00;;
22070;SDS011;11200;51.488;6.668;2023-03-17T21:03:41;6.72;;;3.25;;